createdAt,value
2019-05-18T00:00:31.652Z,5.9
2019-05-18T00:01:31.656Z,5.9
2019-05-18T00:02:31.735Z,6
2019-05-18T00:03:31.732Z,6
2019-05-18T00:04:31.808Z,6
2019-05-18T00:05:31.766Z,6
2019-05-18T00:06:31.799Z,6
2019-05-18T00:07:31.809Z,6.1
2019-05-18T00:08:31.833Z,6.1
2019-05-18T00:09:31.957Z,6.1
2019-05-18T00:10:31.873Z,6
2019-05-18T00:11:31.923Z,6
2019-05-18T00:12:31.918Z,6
2019-05-18T00:13:31.943Z,6
2019-05-18T00:14:31.990Z,6
2019-05-18T00:15:32.008Z,6
2019-05-18T00:16:32.012Z,6
2019-05-18T00:17:32.030Z,6
2019-05-18T00:18:32.066Z,6
2019-05-18T00:19:32.092Z,5.9
2019-05-18T00:20:32.095Z,6
2019-05-18T00:21:32.186Z,6
2019-05-18T00:22:32.106Z,5.9
2019-05-18T00:23:32.090Z,6
2019-05-18T00:24:32.115Z,5.9
2019-05-18T00:25:32.108Z,5.8
2019-05-18T00:26:32.142Z,5.8
2019-05-18T00:27:32.117Z,5.7
2019-05-18T00:28:32.141Z,5.6
2019-05-18T00:29:32.144Z,5.6
2019-05-18T00:30:32.138Z,5.6
2019-05-18T00:31:32.199Z,5.6
2019-05-18T00:32:32.158Z,5.6
2019-05-18T00:33:32.200Z,5.6
2019-05-18T00:34:32.159Z,5.7
2019-05-18T00:35:32.149Z,5.7
2019-05-18T00:36:32.183Z,5.8
2019-05-18T00:37:32.224Z,5.8
2019-05-18T00:38:32.314Z,5.8
2019-05-18T00:39:32.392Z,5.9
2019-05-18T00:40:32.357Z,5.9
2019-05-18T00:41:32.404Z,6
2019-05-18T00:42:32.486Z,6
2019-05-18T00:43:32.515Z,6
2019-05-18T00:44:32.485Z,5.9
2019-05-18T00:45:32.552Z,5.9
2019-05-18T00:46:32.655Z,5.9
2019-05-18T00:47:40.651Z,5.9
2019-05-18T00:48:32.752Z,5.9
2019-05-18T00:49:32.756Z,5.9
2019-05-18T00:50:32.802Z,5.9
2019-05-18T00:51:32.878Z,5.9
2019-05-18T00:52:32.923Z,5.9
2019-05-18T00:53:32.940Z,5.9
2019-05-18T00:54:32.981Z,6
2019-05-18T00:55:32.997Z,6
2019-05-18T00:56:33.075Z,6
2019-05-18T00:57:33.113Z,6
2019-05-18T00:58:33.168Z,6
2019-05-18T00:59:33.188Z,5.8
2019-05-18T01:00:33.246Z,5.9
2019-05-18T01:01:33.296Z,5.9
2019-05-18T01:02:33.311Z,5.9
2019-05-18T01:03:33.329Z,5.8
2019-05-18T01:04:33.385Z,5.8
2019-05-18T01:05:33.447Z,5.7
2019-05-18T01:06:33.505Z,5.7
2019-05-18T01:07:33.571Z,5.7
2019-05-18T01:08:33.583Z,5.7
2019-05-18T01:09:33.650Z,5.8
2019-05-18T01:10:33.673Z,5.7
2019-05-18T01:11:33.700Z,5.7
2019-05-18T01:12:33.746Z,5.6
2019-05-18T01:13:33.722Z,5.6
2019-05-18T01:14:33.797Z,5.5
2019-05-18T01:15:33.821Z,5.5
2019-05-18T01:16:33.864Z,5.6
2019-05-18T01:17:33.889Z,5.7
2019-05-18T01:18:33.893Z,5.7
2019-05-18T01:19:33.929Z,5.7
2019-05-18T01:20:33.995Z,5.7
2019-05-18T01:21:33.997Z,5.7
2019-05-18T01:22:34.055Z,5.6
2019-05-18T01:23:34.080Z,5.6
2019-05-18T01:24:34.103Z,5.7
2019-05-18T01:25:34.131Z,5.8
2019-05-18T01:26:34.176Z,5.7
2019-05-18T01:27:34.133Z,5.8
2019-05-18T01:28:34.193Z,5.8
2019-05-18T01:29:34.249Z,5.8
2019-05-18T01:30:34.291Z,5.8
2019-05-18T01:31:34.284Z,5.8
2019-05-18T01:32:34.327Z,5.8
2019-05-18T01:33:34.348Z,5.8
2019-05-18T01:34:34.372Z,5.9
2019-05-18T01:35:34.444Z,5.9
2019-05-18T01:36:34.424Z,6
2019-05-18T01:37:34.477Z,6
2019-05-18T01:38:34.496Z,6
2019-05-18T01:39:34.591Z,6.1
2019-05-18T01:40:34.600Z,6.1
2019-05-18T01:41:34.578Z,6.2
2019-05-18T01:42:34.651Z,6.2
2019-05-18T01:43:34.658Z,6.3
2019-05-18T01:44:34.700Z,6.3
2019-05-18T01:45:34.776Z,6.3
2019-05-18T01:46:34.770Z,6.4
2019-05-18T01:47:34.759Z,6.5
2019-05-18T01:48:34.776Z,6.5
2019-05-18T01:49:35.051Z,6.4
2019-05-18T01:50:34.875Z,6.3
2019-05-18T01:51:35.080Z,6.3
2019-05-18T01:52:34.885Z,6.3
2019-05-18T01:53:34.898Z,6.2
2019-05-18T01:54:34.897Z,6.1
2019-05-18T01:55:34.930Z,6
2019-05-18T01:56:34.964Z,6
2019-05-18T01:57:35.233Z,6
2019-05-18T01:58:34.978Z,6
2019-05-18T01:59:34.993Z,5.9
2019-05-18T02:00:35.025Z,6
2019-05-18T02:01:35.033Z,6
2019-05-18T02:02:35.075Z,6
2019-05-18T02:03:35.074Z,6.1
2019-05-18T02:04:35.079Z,6.1
2019-05-18T02:05:35.097Z,6.1
2019-05-18T02:06:35.122Z,6.1
2019-05-18T02:07:35.156Z,6.1
2019-05-18T02:08:35.160Z,6.2
2019-05-18T02:09:35.156Z,6.2
2019-05-18T02:10:35.151Z,6.2
2019-05-18T02:11:35.193Z,6.2
2019-05-18T02:12:35.180Z,6.1
2019-05-18T02:13:35.146Z,6.2
2019-05-18T02:14:36.277Z,6.2
2019-05-18T02:15:35.181Z,6.2
2019-05-18T02:16:35.194Z,6.1
2019-05-18T02:17:35.203Z,6.2
2019-05-18T02:18:38.323Z,6.1
2019-05-18T02:19:35.214Z,6.2
2019-05-18T02:20:35.237Z,6.1
2019-05-18T02:21:35.187Z,6.1
2019-05-18T02:22:35.194Z,6.1
2019-05-18T02:23:35.274Z,6.1
2019-05-18T02:24:35.379Z,6.1
2019-05-18T02:25:35.375Z,6
2019-05-18T02:26:35.448Z,5.9
2019-05-18T02:27:35.448Z,5.9
2019-05-18T02:28:35.497Z,5.9
2019-05-18T02:29:35.507Z,5.8
2019-05-18T02:30:35.524Z,5.8
2019-05-18T02:31:35.621Z,5.8
2019-05-18T02:32:35.597Z,5.8
2019-05-18T02:33:35.663Z,5.8
2019-05-18T02:34:35.753Z,5.7
2019-05-18T02:35:35.812Z,5.7
2019-05-18T02:36:35.815Z,5.7
2019-05-18T02:37:35.853Z,5.6
2019-05-18T02:38:35.904Z,5.6
2019-05-18T02:39:35.907Z,5.6
2019-05-18T02:40:35.983Z,5.6
2019-05-18T02:41:35.998Z,5.5
2019-05-18T02:42:35.986Z,5.5
2019-05-18T02:43:35.991Z,5.5
2019-05-18T02:44:35.990Z,5.5
2019-05-18T02:45:36.034Z,5.6
2019-05-18T02:46:36.086Z,5.6
2019-05-18T02:47:36.084Z,5.5
2019-05-18T02:48:48.238Z,5.5
2019-05-18T02:49:36.205Z,5.5
2019-05-18T02:50:36.214Z,5.5
2019-05-18T02:51:36.237Z,5.5
2019-05-18T02:52:36.354Z,5.5
2019-05-18T02:53:36.360Z,5.5
2019-05-18T02:54:36.384Z,5.5
2019-05-18T02:55:36.386Z,5.6
2019-05-18T02:56:36.451Z,5.6
2019-05-18T02:57:36.493Z,5.7
2019-05-18T02:58:36.490Z,5.7
2019-05-18T02:59:36.511Z,5.7
2019-05-18T03:00:36.550Z,5.7
2019-05-18T03:01:36.583Z,5.7
2019-05-18T03:02:36.705Z,5.7
2019-05-18T03:03:36.676Z,5.8
2019-05-18T03:04:36.776Z,5.9
2019-05-18T03:05:39.219Z,6.1
2019-05-18T03:06:36.786Z,6.2
2019-05-18T03:07:36.872Z,6.3
2019-05-18T03:08:36.885Z,6.3
2019-05-18T03:09:36.936Z,6.3
2019-05-18T03:10:36.954Z,6.3
2019-05-18T03:11:37.003Z,6.3
2019-05-18T03:12:37.125Z,6.3
2019-05-18T03:13:37.108Z,6.3
2019-05-18T03:14:37.130Z,6.3
2019-05-18T03:15:37.191Z,6.3
2019-05-18T03:16:37.237Z,6.3
2019-05-18T03:17:37.268Z,6.3
2019-05-18T03:18:37.294Z,6.3
2019-05-18T03:19:37.307Z,6.3
2019-05-18T03:20:37.319Z,6.2
2019-05-18T03:21:37.359Z,6.2
2019-05-18T03:22:37.439Z,6.3
2019-05-18T03:23:37.423Z,6.1
2019-05-18T03:24:37.417Z,6
2019-05-18T03:25:37.475Z,6
2019-05-18T03:26:37.487Z,6
2019-05-18T03:27:37.551Z,5.9
2019-05-18T03:28:37.523Z,5.9
2019-05-18T03:29:37.528Z,5.9
2019-05-18T03:30:37.692Z,5.8
2019-05-18T03:31:37.660Z,5.9
2019-05-18T03:32:37.744Z,5.9
2019-05-18T03:33:37.737Z,5.9
2019-05-18T03:34:37.758Z,5.9
2019-05-18T03:35:37.791Z,5.8
2019-05-18T03:36:37.740Z,6
2019-05-18T03:37:37.787Z,6.1
2019-05-18T03:38:37.874Z,6.1
2019-05-18T03:39:37.832Z,6.1
2019-05-18T03:40:37.852Z,6
2019-05-18T03:41:37.885Z,6
2019-05-18T03:42:37.918Z,5.9
2019-05-18T03:43:37.919Z,5.9
2019-05-18T03:44:37.933Z,5.9
2019-05-18T03:45:37.954Z,5.9
2019-05-18T03:46:38.013Z,5.9
2019-05-18T03:47:38.081Z,6
2019-05-18T03:48:38.014Z,6
2019-05-18T03:49:38.061Z,6
2019-05-18T03:50:38.049Z,6
2019-05-18T03:51:38.096Z,6
2019-05-18T03:52:38.189Z,6
2019-05-18T03:53:38.135Z,6
2019-05-18T03:54:38.168Z,6
2019-05-18T03:55:38.151Z,6.1
2019-05-18T03:56:38.203Z,6.1
2019-05-18T03:57:38.265Z,6.1
2019-05-18T03:58:38.218Z,6.1
2019-05-18T03:59:38.244Z,6.2
2019-05-18T04:00:38.301Z,6.2
2019-05-18T04:01:40.489Z,6.2
2019-05-18T04:02:38.261Z,6.3
2019-05-18T04:03:38.296Z,6.3
2019-05-18T04:04:38.271Z,6.4
2019-05-18T04:05:38.366Z,6.4
2019-05-18T04:06:38.316Z,6.4
2019-05-18T04:07:38.316Z,6.5
2019-05-18T04:08:38.351Z,6.5
2019-05-18T04:09:38.379Z,6.6
2019-05-18T04:10:38.336Z,6.6
2019-05-18T04:11:38.346Z,6.6
2019-05-18T04:12:38.354Z,6.6
2019-05-18T04:13:38.336Z,6.7
2019-05-18T04:14:38.403Z,6.7
2019-05-18T04:15:38.347Z,6.7
2019-05-18T04:16:38.370Z,6.6
2019-05-18T04:17:38.429Z,6.6
2019-05-18T04:18:38.430Z,6.6
2019-05-18T04:19:46.042Z,6.6
2019-05-18T04:20:38.575Z,6.6
2019-05-18T04:21:38.629Z,6.5
2019-05-18T04:22:38.743Z,6.5
2019-05-18T04:23:38.686Z,6.5
2019-05-18T04:24:38.745Z,6.5
2019-05-18T04:25:38.784Z,6.5
2019-05-18T04:26:38.811Z,6.6
2019-05-18T04:27:38.920Z,6.6
2019-05-18T04:28:38.959Z,6.6
2019-05-18T04:29:39.002Z,6.6
2019-05-18T04:30:39.038Z,6.7
2019-05-18T04:31:39.162Z,6.7
2019-05-18T04:32:39.129Z,6.8
2019-05-18T04:33:39.164Z,6.9
2019-05-18T04:34:39.265Z,7.1
2019-05-18T04:35:39.270Z,7.5
2019-05-18T04:36:39.344Z,7.6
2019-05-18T04:37:39.395Z,7.9
2019-05-18T04:38:39.368Z,8.1
2019-05-18T04:39:39.471Z,8.6
2019-05-18T04:40:39.510Z,9.1
2019-05-18T04:41:39.534Z,9.3
2019-05-18T04:42:39.610Z,9.3
2019-05-18T04:43:39.649Z,9.1
2019-05-18T04:44:39.721Z,9.1
2019-05-18T04:45:39.797Z,9.4
2019-05-18T04:46:39.791Z,9.7
2019-05-18T04:47:39.801Z,9.8
2019-05-18T04:48:39.875Z,9.8
2019-05-18T04:49:39.899Z,9.7
2019-05-18T04:50:39.967Z,9.6
2019-05-18T04:51:39.980Z,9.5
2019-05-18T04:52:40.045Z,9.5
2019-05-18T04:53:40.069Z,9.4
2019-05-18T04:54:40.127Z,9.3
2019-05-18T04:55:40.191Z,9.3
2019-05-18T04:56:42.780Z,9.2
2019-05-18T04:57:40.231Z,9.1
2019-05-18T04:58:40.239Z,8.9
2019-05-18T04:59:40.294Z,8.6
2019-05-18T05:00:40.357Z,8.5
2019-05-18T05:01:40.374Z,8.4
2019-05-18T05:02:40.370Z,8.5
2019-05-18T05:03:40.383Z,8.6
2019-05-18T05:04:40.435Z,8.5
2019-05-18T05:05:40.481Z,8.5
2019-05-18T05:06:40.469Z,8.4
2019-05-18T05:07:40.485Z,8.3
2019-05-18T05:08:40.536Z,8.3
2019-05-18T05:09:40.543Z,8.3
2019-05-18T05:10:40.606Z,8.2
2019-05-18T05:11:40.866Z,8.3
2019-05-18T05:12:40.638Z,8.1
2019-05-18T05:13:40.678Z,8.2
2019-05-18T05:14:40.737Z,8.2
2019-05-18T05:15:40.756Z,8.2
2019-05-18T05:16:40.758Z,8.2
2019-05-18T05:17:40.777Z,8.2
2019-05-18T05:18:40.828Z,7.9
2019-05-18T05:19:40.852Z,7.9
2019-05-18T05:20:40.950Z,8.1
2019-05-18T05:21:40.923Z,7.9
2019-05-18T05:22:40.945Z,7.9
2019-05-18T05:23:40.954Z,8.1
2019-05-18T05:24:41.029Z,8
2019-05-18T05:25:41.034Z,8
2019-05-18T05:26:40.998Z,8.1
2019-05-18T05:27:41.036Z,8.1
2019-05-18T05:28:41.060Z,8.1
2019-05-18T05:29:41.078Z,8.2
2019-05-18T05:30:41.155Z,8
2019-05-18T05:31:41.139Z,8.1
2019-05-18T05:32:41.173Z,8.2
2019-05-18T05:33:41.173Z,8
2019-05-18T05:34:41.242Z,7.9
2019-05-18T05:35:41.219Z,7.8
2019-05-18T05:36:41.246Z,7.8
2019-05-18T05:37:41.249Z,7.8
2019-05-18T05:38:43.521Z,7.7
2019-05-18T05:39:41.273Z,7.8
2019-05-18T05:40:41.307Z,7.8
2019-05-18T05:41:41.333Z,7.7
2019-05-18T05:42:41.344Z,7.6
2019-05-18T05:43:41.349Z,7.7
2019-05-18T05:44:41.389Z,7.8
2019-05-18T05:45:41.398Z,7.7
2019-05-18T05:46:41.444Z,7.7
2019-05-18T05:47:41.425Z,7.6
2019-05-18T05:48:41.441Z,7.6
2019-05-18T05:49:41.511Z,7.7
2019-05-18T05:50:41.455Z,7.7
2019-05-18T05:51:41.455Z,7.7
2019-05-18T05:52:41.556Z,7.8
2019-05-18T05:53:41.459Z,7.8
2019-05-18T05:54:41.518Z,7.9
2019-05-18T05:55:41.556Z,7.9
2019-05-18T05:56:41.515Z,7.9
2019-05-18T05:57:41.494Z,8
2019-05-18T05:58:41.527Z,7.6
2019-05-18T05:59:41.501Z,7.6
2019-05-18T06:00:41.503Z,7.8
2019-05-18T06:01:41.510Z,7.6
2019-05-18T06:02:41.627Z,7.5
2019-05-18T06:03:41.611Z,7.5
2019-05-18T06:04:41.686Z,7.3
2019-05-18T06:05:41.687Z,7.3
2019-05-18T06:06:41.718Z,7.5
2019-05-18T06:07:41.789Z,7.7
2019-05-18T06:08:41.856Z,7.5
2019-05-18T06:09:44.175Z,7.7
2019-05-18T06:10:41.875Z,7.8
2019-05-18T06:11:41.899Z,7.9
2019-05-18T06:12:41.987Z,8.1
2019-05-18T06:13:41.962Z,7.8
2019-05-18T06:14:42.117Z,7.7
2019-05-18T06:15:42.071Z,7.8
2019-05-18T06:16:42.092Z,7.7
2019-05-18T06:17:42.135Z,7.7
2019-05-18T06:18:42.159Z,7.7
2019-05-18T06:19:42.195Z,7.9
2019-05-18T06:20:50.742Z,7.9
2019-05-18T06:21:42.315Z,7.8
2019-05-18T06:22:42.429Z,7.7
2019-05-18T06:23:42.410Z,7.7
2019-05-18T06:24:42.466Z,8
2019-05-18T06:25:42.514Z,7.8
2019-05-18T06:26:42.593Z,7.4
2019-05-18T06:27:42.638Z,7.8
2019-05-18T06:28:42.687Z,7.9
2019-05-18T06:29:42.758Z,7.7
2019-05-18T06:30:42.782Z,7.9
2019-05-18T06:31:42.855Z,7.9
2019-05-18T06:32:42.918Z,7.8
2019-05-18T06:33:42.922Z,7.7
2019-05-18T06:34:42.967Z,7.8
2019-05-18T06:35:42.959Z,7.6
2019-05-18T06:36:43.004Z,7.7
2019-05-18T06:37:43.097Z,8
2019-05-18T06:38:43.136Z,7.9
2019-05-18T06:39:43.138Z,7.9
2019-05-18T06:40:43.155Z,7.7
2019-05-18T06:41:43.215Z,7.9
2019-05-18T06:42:43.245Z,7
2019-05-18T06:43:43.250Z,6.9
2019-05-18T06:44:43.290Z,7.7
2019-05-18T06:45:43.337Z,7.3
2019-05-18T06:46:43.442Z,7.4
2019-05-18T06:47:43.431Z,7.5
2019-05-18T06:48:43.481Z,7.7
2019-05-18T06:49:43.478Z,7.4
2019-05-18T06:50:43.553Z,7.4
2019-05-18T06:51:43.545Z,7.5
2019-05-18T06:52:43.604Z,7.7
2019-05-18T06:53:43.630Z,7.7
2019-05-18T06:54:43.662Z,7.6
2019-05-18T06:55:43.692Z,7.8
2019-05-18T06:56:43.720Z,7.6
2019-05-18T06:57:43.713Z,7.6
2019-05-18T06:58:43.729Z,7.5
2019-05-18T06:59:43.780Z,7.6
2019-05-18T07:00:43.830Z,7.6
2019-05-18T07:01:43.861Z,7.5
2019-05-18T07:02:43.859Z,7.7
2019-05-18T07:03:45.087Z,7.8
2019-05-18T07:04:44.634Z,7.7
2019-05-18T07:05:43.955Z,7.6
2019-05-18T07:06:43.956Z,7.8
2019-05-18T07:07:43.993Z,7.8
2019-05-18T07:08:44.034Z,7.8
2019-05-18T07:09:44.107Z,7.8
2019-05-18T07:10:44.111Z,7.8
2019-05-18T07:11:44.131Z,7.9
2019-05-18T07:12:44.176Z,7.9
2019-05-18T07:13:44.179Z,8.3
2019-05-18T07:14:44.204Z,8
2019-05-18T07:15:44.242Z,8
2019-05-18T07:16:44.312Z,8
2019-05-18T07:17:44.322Z,7.6
2019-05-18T07:18:44.312Z,7.8
2019-05-18T07:19:44.353Z,8.3
2019-05-18T07:20:44.353Z,8.5
2019-05-18T07:21:44.355Z,8.3
2019-05-18T07:22:44.388Z,8
2019-05-18T07:23:44.403Z,7.9
2019-05-18T07:24:44.440Z,8
2019-05-18T07:25:44.457Z,7.8
2019-05-18T07:26:44.514Z,7.9
2019-05-18T07:27:44.513Z,8
2019-05-18T07:28:44.501Z,8.4
2019-05-18T07:29:44.525Z,8.3
2019-05-18T07:30:44.521Z,7.8
2019-05-18T07:31:44.600Z,7.8
2019-05-18T07:32:44.529Z,7.7
2019-05-18T07:33:44.550Z,8.1
2019-05-18T07:34:44.586Z,7.7
2019-05-18T07:35:44.589Z,7.8
2019-05-18T07:36:44.573Z,7.8
2019-05-18T07:37:44.594Z,8
2019-05-18T07:38:44.659Z,8.4
2019-05-18T07:39:44.611Z,7.9
2019-05-18T07:40:45.619Z,7.9
2019-05-18T07:41:46.983Z,8.2
2019-05-18T07:42:44.613Z,8.2
2019-05-18T07:43:44.646Z,8.2
2019-05-18T07:44:44.619Z,8.6
2019-05-18T07:45:44.706Z,8.3
2019-05-18T07:46:44.739Z,8.4
2019-05-18T07:47:44.803Z,8
2019-05-18T07:48:44.801Z,8.2
2019-05-18T07:49:44.850Z,8.4
2019-05-18T07:50:44.879Z,8.4
2019-05-18T07:51:44.896Z,8.1
2019-05-18T07:52:44.923Z,7.9
2019-05-18T07:53:45.015Z,8.3
2019-05-18T07:54:45.033Z,8
2019-05-18T07:55:45.091Z,8.3
2019-05-18T07:56:45.152Z,8.1
2019-05-18T07:57:45.220Z,7.9
2019-05-18T07:58:45.163Z,7.8
2019-05-18T07:59:45.232Z,8.3
2019-05-18T08:00:45.281Z,8.1
2019-05-18T08:01:45.357Z,8.3
2019-05-18T08:02:47.972Z,8.1
2019-05-18T08:03:45.439Z,8.4
2019-05-18T08:04:45.529Z,7.9
2019-05-18T08:05:45.559Z,8.2
2019-05-18T08:06:45.573Z,8.5
2019-05-18T08:07:45.638Z,8.2
2019-05-18T08:08:45.674Z,8.3
2019-05-18T08:09:45.712Z,8.6
2019-05-18T08:10:45.723Z,8.4
2019-05-18T08:11:45.799Z,8.3
2019-05-18T08:12:45.814Z,8.3
2019-05-18T08:13:45.823Z,8.2
2019-05-18T08:14:45.880Z,8
2019-05-18T08:15:45.913Z,8
2019-05-18T08:16:45.980Z,8
2019-05-18T08:17:46.075Z,8.2
2019-05-18T08:18:46.020Z,8.4
2019-05-18T08:19:46.042Z,8.4
2019-05-18T08:20:46.114Z,8.3
2019-05-18T08:21:53.018Z,8.4
2019-05-18T08:22:46.233Z,8.3
2019-05-18T08:23:46.176Z,8.3
2019-05-18T08:24:46.218Z,8.3
2019-05-18T08:25:46.221Z,8.1
2019-05-18T08:26:46.264Z,8.5
2019-05-18T08:27:46.341Z,8.2
2019-05-18T08:28:46.332Z,8.3
2019-05-18T08:29:46.368Z,8.3
2019-05-18T08:30:46.384Z,8.4
2019-05-18T08:31:46.433Z,8.4
2019-05-18T08:32:46.480Z,8.4
2019-05-18T08:33:46.431Z,8.6
2019-05-18T08:34:46.555Z,8.6
2019-05-18T08:35:46.474Z,8.8
2019-05-18T08:36:46.467Z,8.5
2019-05-18T08:37:46.562Z,8.8
2019-05-18T08:38:46.581Z,8.8
2019-05-18T08:39:46.581Z,8.5
2019-05-18T08:40:46.633Z,8.5
2019-05-18T08:41:48.694Z,8.6
2019-05-18T08:42:46.854Z,8.4
2019-05-18T08:43:46.745Z,8.4
2019-05-18T08:44:46.745Z,8.4
2019-05-18T08:45:46.805Z,8.4
2019-05-18T08:46:46.796Z,8.1
2019-05-18T08:47:46.924Z,8.2
2019-05-18T08:48:46.907Z,8
2019-05-18T08:49:46.913Z,8.5
2019-05-18T08:50:46.946Z,8.3
2019-05-18T08:51:46.974Z,8.2
2019-05-18T08:52:47.056Z,7.9
2019-05-18T08:53:47.017Z,8.7
2019-05-18T08:54:47.043Z,8.3
2019-05-18T08:55:47.030Z,8.3
2019-05-18T08:56:47.086Z,8.3
2019-05-18T08:57:47.136Z,8.9
2019-05-18T08:58:47.123Z,8.7
2019-05-18T08:59:47.129Z,8.8
2019-05-18T09:00:47.142Z,8.7
2019-05-18T09:01:47.164Z,8.6
2019-05-18T09:02:47.193Z,8.5
2019-05-18T09:03:47.259Z,8.6
2019-05-18T09:04:47.215Z,8.2
2019-05-18T09:05:47.226Z,8.6
2019-05-18T09:06:47.232Z,8.6
2019-05-18T09:07:47.301Z,8.7
2019-05-18T09:08:47.324Z,8.9
2019-05-18T09:09:47.387Z,9
2019-05-18T09:10:47.336Z,8.9
2019-05-18T09:11:47.322Z,8.5
2019-05-18T09:12:47.346Z,9.2
2019-05-18T09:13:47.393Z,8.9
2019-05-18T09:14:47.383Z,8.9
2019-05-18T09:15:47.395Z,8.6
2019-05-18T09:16:47.401Z,8.6
2019-05-18T09:17:47.409Z,8.5
2019-05-18T09:18:47.462Z,8.6
2019-05-18T09:19:47.440Z,8.4
2019-05-18T09:20:47.428Z,8.4
2019-05-18T09:21:47.437Z,8.3
2019-05-18T09:22:47.439Z,8.3
2019-05-18T09:23:47.467Z,8.4
2019-05-18T09:24:47.513Z,8.3
2019-05-18T09:25:47.446Z,8.2
2019-05-18T09:26:47.449Z,8.2
2019-05-18T09:27:47.495Z,8.3
2019-05-18T09:28:49.754Z,8.4
2019-05-18T09:29:47.557Z,8.3
2019-05-18T09:30:47.610Z,8.4
2019-05-18T09:31:47.669Z,8.8
2019-05-18T09:32:47.693Z,8.7
2019-05-18T09:33:47.751Z,9
2019-05-18T09:34:47.807Z,8.8
2019-05-18T09:35:47.811Z,8.7
2019-05-18T09:36:47.845Z,8.8
2019-05-18T09:37:47.839Z,8.6
2019-05-18T09:38:48.000Z,8.4
2019-05-18T09:39:47.947Z,8.6
2019-05-18T09:40:47.996Z,8.5
2019-05-18T09:41:48.051Z,8.6
2019-05-18T09:42:48.058Z,8.7
2019-05-18T09:43:48.091Z,8.4
2019-05-18T09:44:48.163Z,8.4
2019-05-18T09:45:48.224Z,8.5
2019-05-18T09:46:48.221Z,8.6
2019-05-18T09:47:48.258Z,9
2019-05-18T09:48:48.334Z,8.7
2019-05-18T09:49:48.342Z,8.5
2019-05-18T09:50:48.401Z,8.6
2019-05-18T09:51:48.459Z,8.6
2019-05-18T09:52:48.520Z,8.5
2019-05-18T09:53:51.371Z,8.9
2019-05-18T09:54:48.548Z,8.8
2019-05-18T09:55:48.610Z,8.6
2019-05-18T09:56:48.673Z,8.7
2019-05-18T09:57:48.716Z,8.6
2019-05-18T09:58:48.743Z,8.8
2019-05-18T09:59:48.871Z,8.4
2019-05-18T10:00:48.827Z,9.2
2019-05-18T10:01:48.853Z,9.1
2019-05-18T10:02:48.939Z,8.9
2019-05-18T10:03:48.907Z,9.1
2019-05-18T10:04:48.992Z,8.6
2019-05-18T10:05:49.036Z,8.6
2019-05-18T10:06:49.097Z,8.6
2019-05-18T10:07:49.094Z,8.7
2019-05-18T10:08:49.122Z,8.9
2019-05-18T10:09:49.162Z,8.8
2019-05-18T10:10:49.241Z,8.7
2019-05-18T10:11:49.188Z,8.6
2019-05-18T10:12:49.243Z,8.8
2019-05-18T10:13:49.261Z,8.5
2019-05-18T10:14:49.330Z,8.9
2019-05-18T10:15:49.349Z,9
2019-05-18T10:16:49.398Z,8.9
2019-05-18T10:17:49.428Z,8.8
2019-05-18T10:18:49.450Z,8.7
2019-05-18T10:19:49.542Z,8.7
2019-05-18T10:20:49.507Z,8.8
2019-05-18T10:21:49.510Z,8.7
2019-05-18T10:22:55.776Z,9
2019-05-18T10:23:49.597Z,8.7
2019-05-18T10:24:49.678Z,8.8
2019-05-18T10:25:49.656Z,8.8
2019-05-18T10:26:49.695Z,8.6
2019-05-18T10:27:49.803Z,8.6
2019-05-18T10:28:49.742Z,8.7
2019-05-18T10:29:49.804Z,9
2019-05-18T10:30:49.861Z,9.2
2019-05-18T10:31:49.854Z,8.8
2019-05-18T10:32:49.920Z,8.7
2019-05-18T10:33:49.925Z,8.9
2019-05-18T10:34:49.981Z,8.8
2019-05-18T10:35:49.993Z,8.9
2019-05-18T10:36:50.046Z,9
2019-05-18T10:37:50.055Z,9
2019-05-18T10:38:50.097Z,8.9
2019-05-18T10:39:50.113Z,8.9
2019-05-18T10:40:50.113Z,8.7
2019-05-18T10:41:50.193Z,8.9
2019-05-18T10:42:50.173Z,8.8
2019-05-18T10:43:50.206Z,8.4
2019-05-18T10:44:50.238Z,8.7
2019-05-18T10:45:50.279Z,8.8
2019-05-18T10:46:50.344Z,8.8
2019-05-18T10:47:50.306Z,8.7
2019-05-18T10:48:50.338Z,9
2019-05-18T10:49:50.367Z,8.9
2019-05-18T10:50:50.358Z,8.8
2019-05-18T10:51:50.417Z,8.7
2019-05-18T10:52:50.409Z,8.8
2019-05-18T10:53:50.402Z,9
2019-05-18T10:54:50.426Z,8.8
2019-05-18T10:55:50.442Z,8.8
2019-05-18T10:56:50.483Z,8.9
2019-05-18T10:57:50.497Z,8.6
2019-05-18T10:58:50.466Z,8.6
2019-05-18T10:59:50.514Z,8.7
2019-05-18T11:00:50.510Z,8.7
2019-05-18T11:01:50.506Z,8.6
2019-05-18T11:02:50.494Z,8.6
2019-05-18T11:03:50.545Z,8.5
2019-05-18T11:04:50.522Z,8.6
2019-05-18T11:05:52.825Z,8.8
2019-05-18T11:06:50.566Z,8.8
2019-05-18T11:07:52.559Z,8.5
2019-05-18T11:08:52.126Z,8.9
2019-05-18T11:09:51.799Z,8.7
2019-05-18T11:10:52.631Z,9
2019-05-18T11:11:54.187Z,9.3
2019-05-18T11:12:50.718Z,9
2019-05-18T11:13:51.664Z,9.2
2019-05-18T11:14:50.656Z,9.1
2019-05-18T11:15:50.733Z,9.4
2019-05-18T11:16:50.823Z,9.2
2019-05-18T11:17:50.819Z,8.9
2019-05-18T11:18:50.865Z,8.8
2019-05-18T11:19:50.951Z,8.9
2019-05-18T11:20:50.941Z,8.6
2019-05-18T11:21:51.008Z,9.1
2019-05-18T11:22:52.894Z,8.8
2019-05-18T11:23:56.423Z,8.7
2019-05-18T11:24:51.174Z,9
2019-05-18T11:25:51.229Z,8.9
2019-05-18T11:26:51.312Z,8.7
2019-05-18T11:27:51.282Z,8.8
2019-05-18T11:28:51.366Z,8.6
2019-05-18T11:29:51.396Z,9
2019-05-18T11:30:51.472Z,8.9
2019-05-18T11:31:51.540Z,8.9
2019-05-18T11:32:51.560Z,8.8
2019-05-18T11:33:51.622Z,8.8
2019-05-18T11:34:51.692Z,8.7
2019-05-18T11:35:51.712Z,8.8
2019-05-18T11:36:51.797Z,8.6
2019-05-18T11:37:53.246Z,8.8
2019-05-18T11:38:54.334Z,8.9
2019-05-18T11:39:51.907Z,8.9
2019-05-18T11:40:51.991Z,8.9
2019-05-18T11:41:52.051Z,9.1
2019-05-18T11:42:52.061Z,9.2
2019-05-18T11:43:52.077Z,8.9
2019-05-18T11:44:52.150Z,9
2019-05-18T11:45:52.158Z,8.9
2019-05-18T11:46:52.235Z,9
2019-05-18T11:47:52.258Z,9
2019-05-18T11:48:52.303Z,9.2
2019-05-18T11:49:52.387Z,9.2
2019-05-18T11:50:52.388Z,9.1
2019-05-18T11:51:52.457Z,8.7
2019-05-18T11:52:54.542Z,8.8
2019-05-18T11:53:58.042Z,8.6
2019-05-18T11:54:53.876Z,8.6
2019-05-18T11:55:54.770Z,8.7
2019-05-18T11:56:52.668Z,8.7
2019-05-18T11:57:52.687Z,8.7
2019-05-18T11:58:52.694Z,8.8
2019-05-18T11:59:52.735Z,8.8
2019-05-18T12:00:52.782Z,8.9
2019-05-18T12:01:52.827Z,8.9
2019-05-18T12:02:52.861Z,8.9
2019-05-18T12:03:52.857Z,9.1
2019-05-18T12:04:52.906Z,8.7
2019-05-18T12:05:52.936Z,9
2019-05-18T12:06:53.096Z,8.6
2019-05-18T12:07:53.046Z,8.8
2019-05-18T12:08:53.035Z,8.7
2019-05-18T12:09:53.121Z,8.8
2019-05-18T12:10:56.018Z,9
2019-05-18T12:11:53.178Z,9.1
2019-05-18T12:12:53.247Z,9.2
2019-05-18T12:13:53.248Z,8.9
2019-05-18T12:14:53.284Z,8.8
2019-05-18T12:15:53.270Z,9.2
2019-05-18T12:16:53.357Z,9
2019-05-18T12:17:53.406Z,8.9
2019-05-18T12:18:57.628Z,9.1
2019-05-18T12:19:53.367Z,9
2019-05-18T12:20:53.360Z,9
2019-05-18T12:21:53.437Z,8.9
2019-05-18T12:22:53.446Z,8.7
2019-05-18T12:23:53.464Z,8.6
2019-05-18T12:24:53.455Z,8.4
2019-05-18T12:25:53.516Z,8.3
2019-05-18T12:26:53.506Z,8.4
2019-05-18T12:27:53.551Z,8.7
2019-05-18T12:28:53.550Z,8.8
2019-05-18T12:29:53.561Z,8.6
2019-05-18T12:30:53.644Z,8.5
2019-05-18T12:31:53.654Z,8.7
2019-05-18T12:32:53.618Z,8.7
2019-05-18T12:33:53.616Z,8.7
2019-05-18T12:34:53.641Z,8.8
2019-05-18T12:35:53.661Z,8.5
2019-05-18T12:36:53.661Z,8.4
2019-05-18T12:37:53.665Z,8.6
2019-05-18T12:38:53.731Z,8.4
2019-05-18T12:39:53.687Z,8.8
2019-05-18T12:40:53.706Z,8.7
2019-05-18T12:41:53.739Z,8.9
2019-05-18T12:42:53.726Z,9.2
2019-05-18T12:43:53.757Z,9.2
2019-05-18T12:44:53.755Z,8.9
2019-05-18T12:45:53.731Z,8.7
2019-05-18T12:46:53.957Z,8.9
2019-05-18T12:47:53.728Z,8.8
2019-05-18T12:48:53.814Z,8.8
2019-05-18T12:49:53.746Z,8.6
2019-05-18T12:50:53.760Z,8.6
2019-05-18T12:51:53.863Z,8.7
2019-05-18T12:52:53.911Z,8.6
2019-05-18T12:53:53.977Z,8.8
2019-05-18T12:54:54.004Z,8.9
2019-05-18T12:55:54.056Z,8.7
2019-05-18T12:56:54.078Z,8.9
2019-05-18T12:57:54.149Z,8.5
2019-05-18T12:58:54.264Z,8.6
2019-05-18T12:59:54.341Z,9
2019-05-18T13:00:54.329Z,8.9
2019-05-18T13:01:54.374Z,8.6
2019-05-18T13:02:54.446Z,8.6
2019-05-18T13:03:54.499Z,8.6
2019-05-18T13:04:54.596Z,8.9
2019-05-18T13:05:54.587Z,8.5
2019-05-18T13:06:54.659Z,9.1
2019-05-18T13:07:54.641Z,8.7
2019-05-18T13:08:54.645Z,8.4
2019-05-18T13:09:54.725Z,8.1
2019-05-18T13:10:54.738Z,8.2
2019-05-18T13:11:54.881Z,8.1
2019-05-18T13:12:54.821Z,8
2019-05-18T13:13:54.828Z,8.1
2019-05-18T13:14:54.902Z,8.6
2019-05-18T13:15:54.908Z,8.4
2019-05-18T13:16:54.970Z,8.7
2019-05-18T13:17:55.009Z,8.4
2019-05-18T13:18:55.096Z,8.4
2019-05-18T13:19:55.119Z,8.4
2019-05-18T13:20:57.302Z,8.7
2019-05-18T13:21:55.148Z,8.7
2019-05-18T13:22:55.177Z,8.9
2019-05-18T13:23:55.228Z,8.9
2019-05-18T13:24:55.309Z,8.9
2019-05-18T13:25:55.304Z,8.6
2019-05-18T13:26:55.367Z,9.1
2019-05-18T13:27:55.391Z,8.6
2019-05-18T13:28:55.464Z,9.1
2019-05-18T13:29:55.497Z,8.8
2019-05-18T13:30:56.580Z,8.8
2019-05-18T13:31:55.572Z,9.1
2019-05-18T13:32:55.614Z,8.8
2019-05-18T13:33:55.661Z,8.3
2019-05-18T13:34:55.707Z,8.2
2019-05-18T13:35:55.744Z,8.3
2019-05-18T13:36:55.733Z,8.6
2019-05-18T13:37:55.868Z,8.7
2019-05-18T13:38:55.861Z,8.6
2019-05-18T13:39:55.851Z,8.6
2019-05-18T13:40:55.900Z,8.5
2019-05-18T13:42:27.929Z,9
2019-05-18T13:42:55.951Z,9.1
2019-05-18T13:43:56.001Z,8.7
2019-05-18T13:44:56.002Z,8.8
2019-05-18T13:45:56.053Z,9.4
2019-05-18T13:46:56.063Z,8.7
2019-05-18T13:47:56.111Z,9
2019-05-18T13:48:56.135Z,8.9
2019-05-18T13:49:58.311Z,9.1
2019-05-18T13:50:56.146Z,8.9
2019-05-18T13:51:56.166Z,8.8
2019-05-18T13:52:56.204Z,9.2